createdAt,value
2022-09-23T00:00:36.876Z,3.83
2022-09-23T00:01:39.091Z,3.63
2022-09-23T00:02:42.930Z,3.80
2022-09-23T00:03:46.150Z,3.67
2022-09-23T00:04:48.242Z,4.28
2022-09-23T00:05:58.747Z,3.63
2022-09-23T00:07:01.007Z,3.90
2022-09-23T00:08:03.144Z,4.20
2022-09-23T00:10:39.831Z,4.40
2022-09-23T00:11:42.087Z,3.83
2022-09-23T00:12:44.477Z,4.10
2022-09-23T00:13:48.857Z,3.90
2022-09-23T00:14:50.960Z,4.45
2022-09-23T00:15:53.075Z,3.67
2022-09-23T00:16:55.305Z,4.30
2022-09-23T00:17:58.067Z,3.60
2022-09-23T00:19:01.946Z,4.57
2022-09-23T00:20:05.127Z,3.97
2022-09-23T00:21:10.758Z,3.78
2022-09-23T00:22:13.895Z,3.88
2022-09-23T00:23:16.071Z,3.28
2022-09-23T00:24:19.649Z,3.72
2022-09-23T00:25:21.746Z,3.78
2022-09-23T00:26:24.084Z,3.40
2022-09-23T00:27:26.406Z,3.92
2022-09-23T00:28:28.975Z,3.58
2022-09-23T00:29:31.838Z,4.00
2022-09-23T00:30:33.959Z,3.55
2022-09-23T00:31:36.720Z,3.10
2022-09-23T00:32:40.552Z,3.92
2022-09-23T00:33:42.961Z,3.35
2022-09-23T00:34:45.116Z,3.30
2022-09-23T00:35:47.735Z,3.92
2022-09-23T00:36:49.952Z,3.13
2022-09-23T00:37:52.079Z,3.72
2022-09-23T00:38:54.960Z,3.38
2022-09-23T00:39:57.339Z,3.50
2022-09-23T00:41:00.863Z,3.58
2022-09-23T00:42:03.103Z,3.72
2022-09-23T00:43:06.016Z,4.10
2022-09-23T00:44:43.602Z,3.45
2022-09-23T00:45:50.483Z,3.42
2022-09-23T00:46:52.710Z,3.10
2022-09-23T00:47:57.952Z,3.75
2022-09-23T00:49:29.415Z,3.42
2022-09-23T00:50:38.160Z,2.97
2022-09-23T00:51:47.102Z,3.63
2022-09-23T00:52:52.022Z,3.60
2022-09-23T00:53:54.217Z,3.22
2022-09-23T00:55:00.518Z,3.10
2022-09-23T00:56:07.285Z,3.63
2022-09-23T00:57:11.501Z,3.75
2022-09-23T00:58:17.792Z,3.22
2022-09-23T00:59:21.660Z,3.30
2022-09-23T01:00:24.498Z,3.50
2022-09-23T01:01:26.960Z,3.13
2022-09-23T01:02:29.209Z,3.55
2022-09-23T01:03:32.177Z,3.17
2022-09-23T01:04:34.732Z,2.95
2022-09-23T01:05:36.875Z,2.92
2022-09-23T01:06:39.003Z,3.17
2022-09-23T01:07:41.145Z,3.08
2022-09-23T01:08:47.234Z,3.13
2022-09-23T01:09:49.973Z,3.13
2022-09-23T01:11:10.669Z,3.03
2022-09-23T01:12:18.887Z,3.80
2022-09-23T01:13:39.880Z,3.40
2022-09-23T01:16:08.312Z,3.53
2022-09-23T01:17:31.383Z,3.58
2022-09-23T01:19:08.766Z,3.47
2022-09-23T01:20:36.955Z,3.40
2022-09-23T01:21:52.626Z,3.50
2022-09-23T01:23:12.975Z,3.20
2022-09-23T01:24:39.676Z,3.75
2022-09-23T01:25:56.796Z,3.53
2022-09-23T01:27:09.034Z,3.25
2022-09-23T01:28:23.711Z,3.00
2022-09-23T01:29:53.885Z,3.50
2022-09-23T01:31:14.511Z,3.15
2022-09-23T01:32:31.274Z,2.95
2022-09-23T01:33:51.328Z,3.30
2022-09-23T01:35:18.390Z,2.75
2022-09-23T01:36:28.787Z,2.72
2022-09-23T01:37:43.775Z,2.92
2022-09-23T01:39:16.219Z,2.72
2022-09-23T01:40:44.581Z,3.13
2022-09-23T01:41:56.474Z,3.20
2022-09-23T01:43:09.871Z,2.90
2022-09-23T01:44:21.553Z,2.92
2022-09-23T01:45:44.234Z,2.40
2022-09-23T01:46:59.476Z,2.83
2022-09-23T01:48:13.687Z,3.15
2022-09-23T01:49:22.006Z,2.92
2022-09-23T01:50:51.125Z,3.47
2022-09-23T01:52:10.032Z,3.13
2022-09-23T01:53:18.628Z,3.05
2022-09-23T01:54:35.650Z,2.95
2022-09-23T01:55:42.513Z,3.00
2022-09-23T01:56:53.672Z,2.70
2022-09-23T01:58:04.271Z,2.75
2022-09-23T01:59:21.487Z,2.80
2022-09-23T02:00:24.603Z,3.13
2022-09-23T02:01:36.321Z,3.17
2022-09-23T02:02:53.136Z,3.30
2022-09-23T02:04:09.051Z,3.13
2022-09-23T02:05:18.371Z,3.05
2022-09-23T02:06:25.447Z,3.30
2022-09-23T02:08:00.672Z,3.30
2022-09-23T02:09:08.878Z,2.83
2022-09-23T02:10:22.999Z,2.60
2022-09-23T02:11:25.280Z,2.63
2022-09-23T02:12:30.407Z,2.78
2022-09-23T02:13:40.094Z,3.10
2022-09-23T02:14:53.790Z,3.65
2022-09-23T02:16:01.275Z,3.00
2022-09-23T02:17:10.993Z,2.72
2022-09-23T02:18:26.492Z,3.13
2022-09-23T02:19:36.565Z,2.88
2022-09-23T02:20:41.988Z,2.90
2022-09-23T02:21:49.014Z,3.20
2022-09-23T02:23:07.594Z,2.55
2022-09-23T02:24:15.075Z,3.35
2022-09-23T02:25:17.490Z,3.10
2022-09-23T02:26:29.499Z,2.90
2022-09-23T02:27:53.002Z,3.03
2022-09-23T02:29:11.539Z,2.67
2022-09-23T02:30:19.033Z,2.80
2022-09-23T02:31:53.748Z,3.00
2022-09-23T02:33:07.109Z,3.08
2022-09-23T02:34:35.533Z,3.25
2022-09-23T02:35:44.090Z,3.25
2022-09-23T02:37:10.687Z,2.63
2022-09-23T02:38:21.354Z,3.22
2022-09-23T02:39:33.963Z,2.75
2022-09-23T02:41:16.010Z,2.97
2022-09-23T02:42:29.522Z,3.30
2022-09-23T02:43:59.789Z,2.75
2022-09-23T02:45:02.184Z,2.83
2022-09-23T02:46:06.068Z,2.85
2022-09-23T02:47:08.777Z,3.20
2022-09-23T02:48:22.897Z,2.97
2022-09-23T02:49:28.216Z,2.92
2022-09-23T02:50:32.466Z,3.28
2022-09-23T02:51:38.202Z,3.13
2022-09-23T02:52:41.003Z,2.40
2022-09-23T02:53:43.525Z,3.30
2022-09-23T02:54:45.686Z,3.05
2022-09-23T02:55:47.785Z,2.28
2022-09-23T02:56:49.953Z,3.08
2022-09-23T02:57:53.413Z,3.20
2022-09-23T02:58:55.964Z,3.22
2022-09-23T02:59:58.531Z,3.28
2022-09-23T03:01:26.264Z,3.55
2022-09-23T03:02:51.735Z,2.90
2022-09-23T03:04:06.721Z,3.05
2022-09-23T03:05:12.947Z,3.13
2022-09-23T03:06:30.523Z,3.00
2022-09-23T03:07:52.299Z,3.10
2022-09-23T03:09:02.669Z,2.92
2022-09-23T03:10:13.536Z,2.60
2022-09-23T03:11:17.509Z,3.05
2022-09-23T03:12:41.752Z,2.88
2022-09-23T03:14:07.212Z,2.90
2022-09-23T03:15:28.005Z,2.60
2022-09-23T03:16:43.545Z,3.03
2022-09-23T03:17:51.761Z,2.95
2022-09-23T03:18:56.805Z,2.80
2022-09-23T03:20:06.997Z,2.90
2022-09-23T03:21:17.040Z,3.03
2022-09-23T03:22:29.850Z,3.00
2022-09-23T03:23:38.257Z,2.63
2022-09-23T03:24:44.716Z,2.80
2022-09-23T03:25:50.338Z,3.05
2022-09-23T03:26:53.964Z,2.75
2022-09-23T03:27:59.322Z,3.38
2022-09-23T03:29:11.430Z,3.10
2022-09-23T03:30:14.063Z,2.80
2022-09-23T03:31:17.514Z,2.80
2022-09-23T03:32:23.606Z,2.50
2022-09-23T03:33:28.819Z,2.83
2022-09-23T03:34:34.435Z,3.00
2022-09-23T03:36:04.087Z,2.63
2022-09-23T03:37:20.531Z,2.85
2022-09-23T03:38:26.295Z,2.78
2022-09-23T03:39:35.654Z,2.63
2022-09-23T03:40:47.691Z,2.78
2022-09-23T03:41:53.526Z,3.00
2022-09-23T03:42:57.428Z,3.20
2022-09-23T03:44:00.221Z,3.30
2022-09-23T03:45:08.927Z,3.45
2022-09-23T03:46:12.514Z,2.70
2022-09-23T03:47:16.502Z,3.08
2022-09-23T03:48:18.610Z,3.33
2022-09-23T03:49:30.414Z,3.42
2022-09-23T03:50:32.719Z,2.88
2022-09-23T03:51:34.967Z,3.38
2022-09-23T03:52:39.665Z,3.35
2022-09-23T03:53:42.379Z,3.20
2022-09-23T03:54:45.057Z,3.42
2022-09-23T03:55:47.850Z,3.45
2022-09-23T03:56:49.971Z,2.55
2022-09-23T03:57:52.183Z,2.72
2022-09-23T03:58:54.286Z,2.70
2022-09-23T03:59:56.412Z,2.90
2022-09-23T04:00:58.774Z,2.80
2022-09-23T04:02:01.811Z,2.85
2022-09-23T04:03:07.199Z,3.15
2022-09-23T04:04:13.070Z,3.20
2022-09-23T04:05:15.333Z,3.17
2022-09-23T04:06:17.463Z,2.92
2022-09-23T04:07:19.673Z,3.22
2022-09-23T04:08:21.819Z,3.67
2022-09-23T04:09:24.081Z,3.67
2022-09-23T04:10:26.254Z,3.08
2022-09-23T04:11:29.017Z,3.17
2022-09-23T04:12:31.262Z,3.55
2022-09-23T04:13:33.426Z,3.15
2022-09-23T04:14:35.570Z,3.17
2022-09-23T04:15:37.966Z,3.13
2022-09-23T04:16:40.161Z,3.00
2022-09-23T04:17:42.372Z,3.38
2022-09-23T04:18:44.711Z,2.88
2022-09-23T04:19:46.819Z,2.90
2022-09-23T04:20:49.248Z,2.75
2022-09-23T04:21:51.357Z,3.85
2022-09-23T04:22:53.482Z,3.75
2022-09-23T04:23:55.868Z,3.15
2022-09-23T04:24:58.020Z,3.05
2022-09-23T04:26:00.235Z,3.08
2022-09-23T04:27:02.661Z,3.55
2022-09-23T04:28:04.773Z,3.17
2022-09-23T04:29:07.669Z,3.10
2022-09-23T04:30:10.475Z,3.15
2022-09-23T04:31:13.038Z,3.30
2022-09-23T04:32:15.240Z,3.80
2022-09-23T04:33:17.463Z,2.90
2022-09-23T04:34:20.386Z,3.08
2022-09-23T04:35:22.718Z,3.75
2022-09-23T04:36:24.854Z,3.10
2022-09-23T04:37:26.985Z,3.92
2022-09-23T04:38:29.152Z,4.00
2022-09-23T04:39:31.371Z,3.08
2022-09-23T04:40:35.418Z,2.97
2022-09-23T04:41:37.689Z,4.05
2022-09-23T04:42:39.892Z,3.08
2022-09-23T04:43:42.905Z,3.03
2022-09-23T04:44:45.038Z,3.45
2022-09-23T04:45:47.153Z,3.30
2022-09-23T04:46:49.656Z,3.72
2022-09-23T04:47:51.850Z,3.75
2022-09-23T04:48:54.082Z,3.20
2022-09-23T04:49:59.710Z,3.25
2022-09-23T04:51:10.643Z,3.78
2022-09-23T04:52:12.780Z,3.65
2022-09-23T04:53:16.740Z,3.75
2022-09-23T04:54:18.995Z,3.17
2022-09-23T04:55:21.985Z,4.22
2022-09-23T04:56:29.279Z,3.45
2022-09-23T04:57:31.401Z,3.80
2022-09-23T04:58:34.489Z,3.78
2022-09-23T04:59:37.250Z,4.28
2022-09-23T05:00:39.416Z,4.03
2022-09-23T05:01:41.722Z,3.28
2022-09-23T05:02:48.856Z,3.78
2022-09-23T05:03:53.092Z,4.00
2022-09-23T05:04:55.420Z,3.60
2022-09-23T05:05:59.873Z,3.30
2022-09-23T05:07:03.402Z,3.42
2022-09-23T05:08:05.759Z,3.92
2022-09-23T05:09:08.605Z,3.22
2022-09-23T05:10:10.963Z,3.60
2022-09-23T05:11:13.143Z,3.40
2022-09-23T05:12:15.279Z,3.78
2022-09-23T05:13:17.387Z,3.80
2022-09-23T05:14:19.981Z,3.60
2022-09-23T05:15:22.086Z,3.42
2022-09-23T05:16:24.713Z,3.42
2022-09-23T05:17:26.938Z,4.10
2022-09-23T05:18:33.321Z,3.38
2022-09-23T05:19:35.429Z,3.78
2022-09-23T05:20:37.635Z,3.33
2022-09-23T05:21:40.182Z,3.85
2022-09-23T05:22:42.302Z,4.20
2022-09-23T05:23:56.410Z,3.58
2022-09-23T05:25:01.567Z,3.83
2022-09-23T05:26:09.605Z,3.55
2022-09-23T05:27:11.849Z,3.95
2022-09-23T05:28:18.208Z,3.33
2022-09-23T05:29:20.316Z,3.97
2022-09-23T05:30:22.452Z,3.92
2022-09-23T05:31:27.096Z,3.55
2022-09-23T05:32:29.296Z,3.38
2022-09-23T05:33:32.542Z,4.10
2022-09-23T05:34:34.646Z,4.05
2022-09-23T05:35:36.770Z,3.38
2022-09-23T05:36:39.366Z,3.08
2022-09-23T05:37:41.548Z,3.67
2022-09-23T05:38:44.138Z,3.65
2022-09-23T05:39:46.240Z,3.80
2022-09-23T05:40:55.900Z,3.67
2022-09-23T05:42:00.120Z,3.60
2022-09-23T05:43:02.225Z,3.58
2022-09-23T05:44:04.775Z,4.50
2022-09-23T05:45:07.709Z,4.18
2022-09-23T05:46:14.431Z,3.92
2022-09-23T05:47:16.687Z,4.03
2022-09-23T05:48:18.871Z,3.58
2022-09-23T05:49:26.603Z,3.80
2022-09-23T05:50:40.038Z,3.20
2022-09-23T05:51:42.159Z,3.92
2022-09-23T05:52:44.319Z,3.65
2022-09-23T05:53:47.663Z,4.72
2022-09-23T05:54:49.914Z,4.35
2022-09-23T05:55:54.272Z,3.70
2022-09-23T05:56:57.688Z,3.38
2022-09-23T05:58:01.375Z,3.30
2022-09-23T05:59:05.031Z,3.85
2022-09-23T06:00:08.009Z,3.53
2022-09-23T06:01:18.073Z,3.72
2022-09-23T06:02:20.346Z,3.78
2022-09-23T06:03:24.052Z,3.55
2022-09-23T06:04:26.218Z,3.72
2022-09-23T06:05:28.342Z,3.60
2022-09-23T06:06:36.797Z,3.80
2022-09-23T06:07:38.935Z,3.75
2022-09-23T06:08:41.997Z,4.20
2022-09-23T06:09:44.268Z,3.65
2022-09-23T06:10:53.508Z,3.75
2022-09-23T06:11:56.593Z,3.88
2022-09-23T06:12:58.724Z,3.90
2022-09-23T06:14:02.231Z,4.20
2022-09-23T06:15:05.057Z,3.80
2022-09-23T06:16:13.031Z,4.28
2022-09-23T06:17:15.168Z,3.75
2022-09-23T06:18:17.385Z,3.95
2022-09-23T06:19:19.517Z,3.38
2022-09-23T06:20:21.617Z,3.72
2022-09-23T06:21:23.738Z,2.83
2022-09-23T06:22:26.269Z,3.20
2022-09-23T06:23:28.998Z,3.42
2022-09-23T06:24:31.835Z,3.60
2022-09-23T06:25:35.146Z,3.88
2022-09-23T06:26:38.284Z,3.17
2022-09-23T06:27:40.409Z,3.15
2022-09-23T06:28:44.591Z,3.53
2022-09-23T06:29:46.727Z,3.47
2022-09-23T06:30:49.409Z,2.88
2022-09-23T06:31:51.537Z,3.47
2022-09-23T06:32:55.522Z,3.67
2022-09-23T06:34:08.131Z,3.00
2022-09-23T06:35:24.078Z,3.13
2022-09-23T06:36:41.245Z,3.08
2022-09-23T06:37:46.343Z,3.05
2022-09-23T06:38:49.340Z,2.88
2022-09-23T06:39:52.547Z,2.70
2022-09-23T06:40:58.013Z,2.30
2022-09-23T06:42:00.109Z,3.03
2022-09-23T06:43:02.582Z,3.25
2022-09-23T06:44:04.839Z,2.70
2022-09-23T06:45:07.797Z,3.33
2022-09-23T06:46:15.616Z,2.83
2022-09-23T06:47:17.770Z,3.10
2022-09-23T06:48:20.535Z,3.33
2022-09-23T06:49:22.687Z,2.88
2022-09-23T06:50:28.359Z,2.70
2022-09-23T06:51:30.705Z,2.72
2022-09-23T06:52:32.847Z,3.13
2022-09-23T06:53:35.538Z,3.45
2022-09-23T06:54:38.047Z,2.88
2022-09-23T06:55:41.307Z,2.63
2022-09-23T06:56:47.386Z,3.03
2022-09-23T06:57:49.478Z,3.42
2022-09-23T06:58:52.636Z,2.65
2022-09-23T06:59:54.733Z,3.20
2022-09-23T07:01:02.016Z,3.10
2022-09-23T07:02:04.313Z,2.72
2022-09-23T07:03:10.095Z,3.20
2022-09-23T07:04:12.208Z,2.47
2022-09-23T07:05:16.420Z,2.78
2022-09-23T07:06:18.581Z,3.30
2022-09-23T07:07:20.705Z,3.67
2022-09-23T07:08:23.852Z,2.72
2022-09-23T07:09:26.042Z,2.88
2022-09-23T07:10:29.150Z,2.97
2022-09-23T07:11:31.240Z,2.90
2022-09-23T07:12:33.994Z,2.97
2022-09-23T07:13:37.049Z,3.25
2022-09-23T07:14:39.163Z,2.50
2022-09-23T07:15:41.554Z,2.90
2022-09-23T07:16:43.686Z,2.83
2022-09-23T07:17:45.761Z,3.03
2022-09-23T07:18:47.863Z,2.92
2022-09-23T07:19:51.575Z,2.67
2022-09-23T07:20:58.008Z,3.08
2022-09-23T07:22:00.184Z,2.70
2022-09-23T07:23:02.322Z,2.75
2022-09-23T07:24:04.978Z,3.00
2022-09-23T07:25:07.476Z,3.25
2022-09-23T07:26:09.790Z,3.45
2022-09-23T07:27:16.401Z,3.08
2022-09-23T07:28:19.176Z,3.15
2022-09-23T07:29:21.388Z,3.35
2022-09-23T07:30:25.544Z,2.92
2022-09-23T07:31:38.283Z,2.95
2022-09-23T07:32:47.987Z,3.35
2022-09-23T07:33:57.443Z,3.03
2022-09-23T07:34:59.567Z,3.50
2022-09-23T07:36:07.222Z,2.95
2022-09-23T07:37:10.597Z,3.05
2022-09-23T07:38:12.964Z,3.28
2022-09-23T07:39:15.115Z,3.38
2022-09-23T07:40:17.363Z,3.28
2022-09-23T07:41:19.679Z,3.47
2022-09-23T07:42:21.939Z,3.78
2022-09-23T07:43:24.090Z,3.03
2022-09-23T07:44:26.727Z,3.45
2022-09-23T07:45:28.890Z,3.40
2022-09-23T07:46:33.917Z,3.03
2022-09-23T07:47:36.234Z,3.10
2022-09-23T07:48:39.085Z,3.63
2022-09-23T07:49:41.404Z,3.17
2022-09-23T07:50:43.510Z,3.30
2022-09-23T07:51:46.174Z,3.75
2022-09-23T07:52:52.366Z,3.55
2022-09-23T07:53:55.503Z,3.22
2022-09-23T07:54:57.638Z,3.08
2022-09-23T07:55:59.747Z,3.03
2022-09-23T07:57:01.899Z,3.08
2022-09-23T07:58:04.032Z,3.08
2022-09-23T07:59:08.939Z,2.80
2022-09-23T08:00:13.586Z,3.45
2022-09-23T08:01:15.751Z,3.38
2022-09-23T08:02:17.887Z,2.80
2022-09-23T08:03:20.358Z,3.42
2022-09-23T08:04:29.128Z,3.33
2022-09-23T08:05:31.834Z,3.28
2022-09-23T08:06:34.248Z,3.10
2022-09-23T08:07:36.380Z,3.17
2022-09-23T08:08:40.629Z,3.03
2022-09-23T08:09:44.006Z,3.35
2022-09-23T08:10:46.234Z,3.58
2022-09-23T08:11:49.430Z,3.42
2022-09-23T08:12:52.051Z,3.58
2022-09-23T08:13:54.851Z,3.25
2022-09-23T08:14:57.017Z,3.08
2022-09-23T08:15:59.347Z,2.70
2022-09-23T08:17:01.539Z,3.05
2022-09-23T08:18:04.205Z,2.90
2022-09-23T08:19:07.315Z,3.50
2022-09-23T08:20:29.845Z,3.10
2022-09-23T08:21:32.109Z,3.35
2022-09-23T08:22:34.295Z,3.13
2022-09-23T08:23:36.496Z,2.83
2022-09-23T08:24:38.618Z,3.08
2022-09-23T08:25:44.967Z,3.00
2022-09-23T08:26:48.504Z,3.45
2022-09-23T08:27:50.620Z,3.33
2022-09-23T08:28:56.497Z,3.00
2022-09-23T08:29:58.610Z,3.30
2022-09-23T08:31:01.323Z,3.25
2022-09-23T08:32:03.566Z,3.03
2022-09-23T08:33:05.723Z,3.65
2022-09-23T08:34:08.333Z,3.35
2022-09-23T08:35:10.892Z,3.60
2022-09-23T08:36:13.082Z,3.67
2022-09-23T08:37:15.212Z,3.38
2022-09-23T08:38:17.766Z,3.25
2022-09-23T08:39:20.772Z,3.95
2022-09-23T08:40:24.281Z,3.15
2022-09-23T08:41:44.755Z,3.40
2022-09-23T08:42:48.998Z,4.32
2022-09-23T08:43:59.400Z,2.88
2022-09-23T08:45:05.582Z,3.33
2022-09-23T08:46:13.513Z,3.83
2022-09-23T08:47:27.915Z,3.17
2022-09-23T08:48:46.323Z,4.00
2022-09-23T08:49:53.745Z,3.58
2022-09-23T08:51:03.683Z,3.40
2022-09-23T08:52:16.471Z,4.20
2022-09-23T08:53:26.257Z,3.95
2022-09-23T08:54:30.986Z,5.03
2022-09-23T08:55:43.590Z,3.67
2022-09-23T08:56:53.224Z,4.40
2022-09-23T08:58:24.816Z,3.70
2022-09-23T08:59:45.592Z,4.15
2022-09-23T09:00:56.157Z,4.38
2022-09-23T09:02:02.475Z,6.75
2022-09-23T09:03:23.890Z,3.72
2022-09-23T09:04:44.617Z,3.35
2022-09-23T09:05:54.151Z,3.90
2022-09-23T09:08:38.122Z,3.72
2022-09-23T09:09:47.105Z,4.20
2022-09-23T09:10:50.422Z,3.85
2022-09-23T09:12:00.934Z,3.25
2022-09-23T09:13:10.826Z,3.88
2022-09-23T09:14:24.494Z,3.75
2022-09-23T09:15:27.569Z,3.70
2022-09-23T09:17:00.424Z,3.92
2022-09-23T09:18:24.006Z,3.90
2022-09-23T09:19:35.147Z,3.40
2022-09-23T09:20:57.394Z,4.00
2022-09-23T09:22:00.870Z,3.30
2022-09-23T09:23:26.058Z,4.03
2022-09-23T09:24:34.076Z,4.22
2022-09-23T09:25:48.477Z,3.78
2022-09-23T09:26:50.876Z,3.60
2022-09-23T09:27:55.822Z,3.70
2022-09-23T09:29:23.331Z,3.97
2022-09-23T09:30:28.303Z,3.85
2022-09-23T09:31:38.239Z,4.10
2022-09-23T09:33:01.790Z,3.65
2022-09-23T09:34:32.704Z,3.80
2022-09-23T09:36:16.359Z,3.70
2022-09-23T09:37:25.605Z,3.70
2022-09-23T09:38:27.919Z,4.35
2022-09-23T09:39:30.955Z,4.70
2022-09-23T09:40:35.094Z,4.22
2022-09-23T09:41:40.277Z,4.40
2022-09-23T09:42:46.845Z,3.50
2022-09-23T09:43:53.393Z,4.50
2022-09-23T09:45:15.120Z,4.30
2022-09-23T09:46:55.344Z,4.50
2022-09-23T09:48:02.041Z,4.20
2022-09-23T09:49:25.270Z,5.03
2022-09-23T09:50:49.329Z,4.57
2022-09-23T09:52:22.519Z,5.70
2022-09-23T09:53:27.010Z,5.57
2022-09-23T09:54:29.920Z,4.07
2022-09-23T09:55:32.228Z,4.38
2022-09-23T09:56:36.260Z,4.97
2022-09-23T09:57:44.822Z,4.82
2022-09-23T09:59:00.638Z,4.75
2022-09-23T10:00:21.714Z,4.55
2022-09-23T10:01:27.185Z,5.60
2022-09-23T10:02:36.906Z,4.57
2022-09-23T10:03:41.442Z,5.10
2022-09-23T10:04:43.738Z,4.22
2022-09-23T10:05:45.788Z,4.28
2022-09-23T10:07:04.793Z,5.00
2022-09-23T10:08:33.441Z,4.18
2022-09-23T10:09:38.100Z,4.47
2022-09-23T10:10:54.845Z,4.43
2022-09-23T10:12:25.950Z,4.70
2022-09-23T10:13:30.061Z,4.82
2022-09-23T10:14:32.248Z,5.00
2022-09-23T10:15:44.907Z,4.90
2022-09-23T10:17:05.501Z,4.80
2022-09-23T10:18:47.319Z,4.32
2022-09-23T10:20:00.750Z,4.97
2022-09-23T10:21:14.445Z,3.75
2022-09-23T10:22:24.052Z,4.20
2022-09-23T10:23:29.124Z,4.28
2022-09-23T10:24:36.307Z,3.90
2022-09-23T10:25:38.490Z,6.18
2022-09-23T10:26:54.991Z,4.35
2022-09-23T10:27:57.156Z,4.72
2022-09-23T10:29:03.153Z,5.15
2022-09-23T10:30:21.633Z,4.22
2022-09-23T10:31:25.413Z,4.03
2022-09-23T10:32:29.333Z,4.00
2022-09-23T10:33:31.832Z,4.35
2022-09-23T10:34:34.943Z,4.55
2022-09-23T10:35:56.111Z,4.90
2022-09-23T10:37:15.627Z,3.60
2022-09-23T10:38:17.734Z,3.58
2022-09-23T10:39:38.058Z,4.80
2022-09-23T10:41:01.818Z,4.65
2022-09-23T10:42:31.610Z,4.00
2022-09-23T10:44:17.377Z,5.07
2022-09-23T10:45:54.454Z,3.95
2022-09-23T10:47:22.882Z,4.63
2022-09-23T10:48:40.753Z,4.50
2022-09-23T10:49:56.521Z,4.78
2022-09-23T10:50:59.736Z,4.70
2022-09-23T10:52:38.016Z,4.05
2022-09-23T10:53:58.672Z,4.90
2022-09-23T10:55:47.238Z,4.35
2022-09-23T10:57:02.625Z,4.65
2022-09-23T10:58:35.473Z,4.72
2022-09-23T10:59:49.795Z,5.00
2022-09-23T11:01:17.052Z,5.00
2022-09-23T11:02:37.912Z,4.20
2022-09-23T11:05:19.606Z,3.92
2022-09-23T11:06:37.520Z,4.65
2022-09-23T11:08:09.020Z,4.65
2022-09-23T11:09:22.236Z,3.88
2022-09-23T11:10:45.916Z,4.65
2022-09-23T11:12:12.557Z,4.82
2022-09-23T11:13:17.685Z,5.25
2022-09-23T11:14:30.070Z,4.55
2022-09-23T11:16:05.983Z,4.65
2022-09-23T11:17:15.167Z,4.63
2022-09-23T11:18:47.735Z,5.38
2022-09-23T11:20:09.618Z,4.70
2022-09-23T11:21:44.155Z,5.10
2022-09-23T11:23:09.645Z,4.28
2022-09-23T11:24:32.765Z,5.38
2022-09-23T11:25:47.093Z,5.10
2022-09-23T11:26:53.130Z,4.72
2022-09-23T11:28:21.807Z,5.10
2022-09-23T11:29:36.445Z,5.40
2022-09-23T11:30:45.658Z,4.60
2022-09-23T11:32:27.595Z,4.60
2022-09-23T11:33:46.197Z,5.78
2022-09-23T11:35:25.943Z,4.95
2022-09-23T11:36:34.072Z,5.15
2022-09-23T11:37:43.677Z,5.03
2022-09-23T11:38:49.352Z,4.80
2022-09-23T11:39:56.422Z,4.93
2022-09-23T11:41:20.623Z,4.07
2022-09-23T11:42:36.688Z,5.03
2022-09-23T11:43:41.393Z,4.80
2022-09-23T11:44:49.017Z,5.25
2022-09-23T11:46:15.860Z,4.75
2022-09-23T11:47:30.114Z,5.30
2022-09-23T11:48:48.024Z,4.55
2022-09-23T11:50:00.096Z,4.80
2022-09-23T11:51:13.187Z,4.85
2022-09-23T11:52:24.755Z,6.05
2022-09-23T11:53:48.353Z,4.63
2022-09-23T11:55:15.768Z,4.85
2022-09-23T11:56:35.195Z,4.80
2022-09-23T11:58:07.685Z,5.10
2022-09-23T11:59:38.808Z,4.95
2022-09-23T12:00:53.951Z,4.82
2022-09-23T12:02:17.442Z,4.75
2022-09-23T12:03:41.470Z,5.00
2022-09-23T12:04:57.905Z,4.90
2022-09-23T12:06:05.421Z,4.63
2022-09-23T12:07:16.677Z,4.25
2022-09-23T12:08:29.195Z,5.10
2022-09-23T12:09:58.538Z,6.32
2022-09-23T12:11:10.239Z,4.93
2022-09-23T12:12:29.597Z,5.07
2022-09-23T12:14:03.074Z,4.72
2022-09-23T12:15:30.106Z,5.10
2022-09-23T12:17:07.164Z,4.43
2022-09-23T12:18:10.588Z,5.18
2022-09-23T12:19:47.515Z,4.90
2022-09-23T12:21:27.156Z,4.72
2022-09-23T12:22:55.011Z,4.63
2022-09-23T12:24:03.208Z,5.78
2022-09-23T12:25:33.709Z,5.10
2022-09-23T12:26:38.406Z,5.53
2022-09-23T12:27:48.458Z,4.60
2022-09-23T12:28:54.842Z,4.75
2022-09-23T12:30:02.271Z,4.53
2022-09-23T12:31:10.058Z,4.88
2022-09-23T12:32:18.456Z,6.93
2022-09-23T12:33:24.716Z,5.20
2022-09-23T12:34:48.868Z,5.25
2022-09-23T12:35:56.286Z,5.15
2022-09-23T12:37:04.793Z,5.50
2022-09-23T12:38:29.778Z,5.45
2022-09-23T12:39:35.478Z,4.80
2022-09-23T12:40:44.420Z,5.32
2022-09-23T12:41:50.697Z,5.15
2022-09-23T12:42:53.004Z,5.20
2022-09-23T12:44:13.914Z,5.22
2022-09-23T12:46:37.526Z,5.55
2022-09-23T12:47:40.214Z,5.57
2022-09-23T12:48:57.976Z,5.25
2022-09-23T12:50:01.258Z,5.65
2022-09-23T12:51:03.361Z,5.50
2022-09-23T12:52:13.543Z,5.55
2022-09-23T12:53:33.649Z,5.05
2022-09-23T12:54:35.850Z,4.90
2022-09-23T12:55:46.983Z,5.35
2022-09-23T12:56:51.902Z,5.38
2022-09-23T12:57:54.010Z,5.28
2022-09-23T12:59:15.866Z,4.45
2022-09-23T13:00:20.883Z,4.75
2022-09-23T13:01:25.351Z,5.10
2022-09-23T13:02:32.766Z,5.22
2022-09-23T13:03:53.517Z,4.85
2022-09-23T13:05:41.892Z,4.57
2022-09-23T13:07:06.297Z,5.18
2022-09-23T13:08:19.552Z,5.10
2022-09-23T13:09:26.812Z,4.65
2022-09-23T13:10:38.645Z,5.40
2022-09-23T13:11:44.108Z,5.05
2022-09-23T13:12:47.255Z,5.88
2022-09-23T13:13:50.827Z,5.45
2022-09-23T13:14:55.967Z,5.28
2022-09-23T13:16:33.060Z,5.30
2022-09-23T13:17:39.974Z,5.78
2022-09-23T13:18:51.017Z,5.30
2022-09-23T13:20:00.482Z,5.80
2022-09-23T13:21:17.120Z,5.72
2022-09-23T13:22:41.420Z,5.28
2022-09-23T13:24:22.098Z,5.60
2022-09-23T13:25:27.432Z,4.75
2022-09-23T13:26:32.243Z,5.18
2022-09-23T13:27:35.933Z,6.35
2022-09-23T13:28:53.816Z,5.40
2022-09-23T13:30:19.323Z,5.68
2022-09-23T13:31:23.419Z,5.57
2022-09-23T13:32:31.689Z,5.60
2022-09-23T13:33:54.318Z,5.32
2022-09-23T13:35:00.784Z,6.32
2022-09-23T13:36:04.283Z,6.00
2022-09-23T13:37:22.412Z,4.97
2022-09-23T13:38:28.015Z,5.38
2022-09-23T13:39:30.163Z,5.18
2022-09-23T13:40:33.540Z,4.70
2022-09-23T13:41:36.137Z,4.75
2022-09-23T13:42:40.596Z,5.45
2022-09-23T13:43:52.750Z,5.30
2022-09-23T13:44:57.448Z,6.05
2022-09-23T13:46:01.808Z,5.45
2022-09-23T13:47:04.205Z,5.82
2022-09-23T13:48:12.476Z,5.82
2022-09-23T13:49:41.535Z,5.32
2022-09-23T13:50:48.509Z,5.40
2022-09-23T13:51:55.107Z,5.32
2022-09-23T13:53:00.938Z,5.63
2022-09-23T13:54:05.164Z,5.13
2022-09-23T13:55:37.305Z,6.03
2022-09-23T13:56:48.843Z,4.80
2022-09-23T13:57:58.152Z,5.78
2022-09-23T13:59:23.870Z,5.88
2022-09-23T14:00:26.821Z,5.65
2022-09-23T14:01:34.614Z,4.90
2022-09-23T14:02:46.985Z,4.72
2022-09-23T14:03:49.850Z,5.35
2022-09-23T14:04:52.801Z,4.90
2022-09-23T14:05:56.325Z,4.85
2022-09-23T14:06:58.687Z,5.00
2022-09-23T14:08:02.051Z,5.40
2022-09-23T14:09:06.435Z,5.35
2022-09-23T14:10:19.278Z,6.00
2022-09-23T14:11:31.434Z,5.20
2022-09-23T14:12:38.957Z,4.85
2022-09-23T14:13:43.562Z,4.80
2022-09-23T14:14:46.463Z,4.85
2022-09-23T14:15:48.919Z,4.65
2022-09-23T14:16:52.140Z,4.88
2022-09-23T14:18:06.248Z,4.50
2022-09-23T14:19:16.862Z,4.47
2022-09-23T14:20:21.525Z,4.85
2022-09-23T14:21:34.689Z,4.22
2022-09-23T14:22:36.902Z,4.93
2022-09-23T14:23:44.717Z,4.53
2022-09-23T14:24:47.120Z,4.72
2022-09-23T14:25:51.320Z,4.50
2022-09-23T14:27:16.041Z,5.00
2022-09-23T14:28:23.684Z,3.80
2022-09-23T14:29:30.759Z,5.18
2022-09-23T14:30:33.118Z,4.28
2022-09-23T14:31:35.370Z,4.82
2022-09-23T14:32:40.213Z,4.82
2022-09-23T14:33:43.256Z,4.53
2022-09-23T14:35:04.104Z,4.63
2022-09-23T14:37:57.402Z,4.38
2022-09-23T14:39:09.567Z,4.93
2022-09-23T14:40:20.210Z,4.60
2022-09-23T14:41:26.271Z,4.53
2022-09-23T14:42:31.892Z,5.35
2022-09-23T14:43:34.037Z,3.83
2022-09-23T14:44:36.274Z,4.25
2022-09-23T14:45:40.274Z,4.45
2022-09-23T14:46:56.560Z,5.00
2022-09-23T14:48:04.316Z,4.60
2022-09-23T14:49:12.573Z,4.70
2022-09-23T14:50:39.618Z,4.40
2022-09-23T14:51:47.981Z,4.20
2022-09-23T14:52:51.354Z,4.20
2022-09-23T14:53:53.618Z,4.53
2022-09-23T14:54:55.806Z,4.68
2022-09-23T14:56:06.791Z,4.72
2022-09-23T14:57:18.237Z,3.85
2022-09-23T14:58:25.606Z,4.30
2022-09-23T14:59:36.191Z,4.65
2022-09-23T15:00:38.532Z,4.93
2022-09-23T15:01:40.923Z,5.13
2022-09-23T15:02:45.362Z,5.40
2022-09-23T15:03:47.748Z,4.97
2022-09-23T15:04:49.957Z,4.32
2022-09-23T15:05:58.026Z,4.43
2022-09-23T15:07:05.794Z,4.22
2022-09-23T15:08:13.445Z,5.20
2022-09-23T15:09:25.970Z,4.95
2022-09-23T15:10:32.327Z,4.95
2022-09-23T15:11:36.041Z,5.07
2022-09-23T15:12:38.822Z,4.40
2022-09-23T15:13:45.770Z,4.47
2022-09-23T15:14:53.962Z,4.95
2022-09-23T15:15:57.840Z,4.63
2022-09-23T15:17:02.825Z,4.65
2022-09-23T15:18:07.889Z,4.82
2022-09-23T15:19:18.396Z,5.10
2022-09-23T15:20:26.853Z,4.57
2022-09-23T15:21:44.942Z,4.60
2022-09-23T15:22:55.919Z,4.45
2022-09-23T15:23:58.745Z,5.32
2022-09-23T15:25:19.367Z,5.32
2022-09-23T15:26:40.660Z,4.75
2022-09-23T15:28:03.245Z,4.70
2022-09-23T15:29:09.618Z,5.03